sensor_id;sensor_type;location;lat;lon;timestamp;P1;durP1;ratioP1;P2;durP2;ratioP2
39208;SDS011;24929;51.982;4.664;2022-11-15T00:00:24;38.47;;;23.02;;
39208;SDS011;24929;51.982;4.664;2022-11-15T00:02:51;59.33;;;23.90;;
39208;SDS011;24929;51.982;4.664;2022-11-15T00:05:17;41.20;;;25.08;;
39208;SDS011;24929;51.982;4.664;2022-11-15T00:07:42;40.95;;;25.00;;
39208;SDS011;24929;51.982;4.664;2022-11-15T00:10:08;45.53;;;24.08;;
39208;SDS011;24929;51.982;4.664;2022-11-15T00:12:36;42.42;;;25.60;;
39208;SDS011;24929;51.982;4.664;2022-11-15T00:15:04;59.28;;;24.40;;
39208;SDS011;24929;51.982;4.664;2022-11-15T00:17:30;50.30;;;26.55;;
39208;SDS011;24929;51.982;4.664;2022-11-15T00:19:55;46.78;;;27.80;;
39208;SDS011;24929;51.982;4.664;2022-11-15T00:22:21;46.97;;;26.05;;
39208;SDS011;24929;51.982;4.664;2022-11-15T00:24:46;43.17;;;23.65;;
39208;SDS011;24929;51.982;4.664;2022-11-15T00:27:12;59.33;;;25.77;;
39208;SDS011;24929;51.982;4.664;2022-11-15T00:29:37;50.13;;;25.67;;
39208;SDS011;24929;51.982;4.664;2022-11-15T00:32:03;41.85;;;24.83;;
39208;SDS011;24929;51.982;4.664;2022-11-15T00:34:29;49.28;;;26.55;;
39208;SDS011;24929;51.982;4.664;2022-11-15T00:36:55;46.22;;;24.02;;
39208;SDS011;24929;51.982;4.664;2022-11-15T00:39:20;57.30;;;24.95;;
39208;SDS011;24929;51.982;4.664;2022-11-15T00:41:46;60.17;;;26.92;;
39208;SDS011;24929;51.982;4.664;2022-11-15T00:44:11;53.97;;;25.40;;
39208;SDS011;24929;51.982;4.664;2022-11-15T00:46:36;57.20;;;25.17;;
39208;SDS011;24929;51.982;4.664;2022-11-15T00:49:02;48.10;;;25.17;;
39208;SDS011;24929;51.982;4.664;2022-11-15T00:51:27;49.47;;;27.38;;
39208;SDS011;24929;51.982;4.664;2022-11-15T00:53:53;55.55;;;27.38;;
39208;SDS011;24929;51.982;4.664;2022-11-15T00:56:18;46.60;;;27.23;;
39208;SDS011;24929;51.982;4.664;2022-11-15T00:58:43;42.10;;;25.58;;
39208;SDS011;24929;51.982;4.664;2022-11-15T01:01:09;50.25;;;24.40;;
39208;SDS011;24929;51.982;4.664;2022-11-15T01:03:37;60.90;;;28.73;;
39208;SDS011;24929;51.982;4.664;2022-11-15T01:06:03;43.42;;;27.00;;
39208;SDS011;24929;51.982;4.664;2022-11-15T01:08:29;58.25;;;29.50;;
39208;SDS011;24929;51.982;4.664;2022-11-15T01:10:54;51.33;;;28.63;;
39208;SDS011;24929;51.982;4.664;2022-11-15T01:13:34;49.38;;;25.83;;
39208;SDS011;24929;51.982;4.664;2022-11-15T01:16:10;45.10;;;25.05;;
39208;SDS011;24929;51.982;4.664;2022-11-15T01:18:41;47.03;;;27.85;;
39208;SDS011;24929;51.982;4.664;2022-11-15T01:21:08;58.03;;;29.10;;
39208;SDS011;24929;51.982;4.664;2022-11-15T01:23:41;52.80;;;25.25;;
39208;SDS011;24929;51.982;4.664;2022-11-15T01:26:07;49.08;;;24.63;;
39208;SDS011;24929;51.982;4.664;2022-11-15T01:28:36;63.75;;;30.48;;
39208;SDS011;24929;51.982;4.664;2022-11-15T01:31:04;51.47;;;27.50;;
39208;SDS011;24929;51.982;4.664;2022-11-15T01:33:33;59.75;;;31.48;;
39208;SDS011;24929;51.982;4.664;2022-11-15T01:36:02;64.55;;;30.38;;
39208;SDS011;24929;51.982;4.664;2022-11-15T01:38:29;53.92;;;29.35;;
39208;SDS011;24929;51.982;4.664;2022-11-15T01:40:55;59.85;;;30.73;;
39208;SDS011;24929;51.982;4.664;2022-11-15T01:43:25;52.20;;;28.75;;
39208;SDS011;24929;51.982;4.664;2022-11-15T01:45:54;53.38;;;29.13;;
39208;SDS011;24929;51.982;4.664;2022-11-15T01:48:25;57.78;;;29.83;;
39208;SDS011;24929;51.982;4.664;2022-11-15T01:50:56;55.35;;;29.20;;
39208;SDS011;24929;51.982;4.664;2022-11-15T01:53:23;47.25;;;26.58;;
39208;SDS011;24929;51.982;4.664;2022-11-15T01:55:50;49.17;;;27.98;;
39208;SDS011;24929;51.982;4.664;2022-11-15T01:58:16;56.45;;;28.63;;
39208;SDS011;24929;51.982;4.664;2022-11-15T02:00:41;44.63;;;26.80;;
39208;SDS011;24929;51.982;4.664;2022-11-15T02:03:07;62.97;;;29.08;;
39208;SDS011;24929;51.982;4.664;2022-11-15T02:05:32;57.25;;;29.00;;
39208;SDS011;24929;51.982;4.664;2022-11-15T02:07:59;52.35;;;30.35;;
39208;SDS011;24929;51.982;4.664;2022-11-15T02:10:27;49.92;;;28.88;;
39208;SDS011;24929;51.982;4.664;2022-11-15T02:12:52;56.75;;;30.92;;
39208;SDS011;24929;51.982;4.664;2022-11-15T02:15:20;54.33;;;29.50;;
39208;SDS011;24929;51.982;4.664;2022-11-15T02:20:39;58.17;;;28.33;;
39208;SDS011;24929;51.982;4.664;2022-11-15T02:31:45;49.90;;;29.52;;
39208;SDS011;24929;51.982;4.664;2022-11-15T02:34:09;61.65;;;28.15;;
39208;SDS011;24929;51.982;4.664;2022-11-15T02:36:49;60.35;;;30.55;;
39208;SDS011;24929;51.982;4.664;2022-11-15T02:42:25;48.20;;;27.08;;
39208;SDS011;24929;51.982;4.664;2022-11-15T02:45:13;55.13;;;28.60;;
39208;SDS011;24929;51.982;4.664;2022-11-15T02:47:44;39.23;;;26.13;;
39208;SDS011;24929;51.982;4.664;2022-11-15T02:50:15;48.60;;;26.80;;
39208;SDS011;24929;51.982;4.664;2022-11-15T02:52:47;50.83;;;28.58;;
39208;SDS011;24929;51.982;4.664;2022-11-15T02:55:35;48.63;;;26.48;;
39208;SDS011;24929;51.982;4.664;2022-11-15T03:00:31;52.95;;;28.38;;
39208;SDS011;24929;51.982;4.664;2022-11-15T03:05:56;47.05;;;26.75;;
39208;SDS011;24929;51.982;4.664;2022-11-15T03:11:08;43.45;;;27.75;;
39208;SDS011;24929;51.982;4.664;2022-11-15T03:13:39;43.38;;;24.75;;
39208;SDS011;24929;51.982;4.664;2022-11-15T03:16:15;36.22;;;23.67;;
39208;SDS011;24929;51.982;4.664;2022-11-15T03:18:53;38.97;;;22.70;;
39208;SDS011;24929;51.982;4.664;2022-11-15T03:21:27;38.50;;;24.00;;
39208;SDS011;24929;51.982;4.664;2022-11-15T03:23:54;36.92;;;22.90;;
39208;SDS011;24929;51.982;4.664;2022-11-15T03:26:22;39.55;;;23.65;;
39208;SDS011;24929;51.982;4.664;2022-11-15T03:28:50;35.03;;;23.13;;
39208;SDS011;24929;51.982;4.664;2022-11-15T03:31:20;36.78;;;23.05;;
39208;SDS011;24929;51.982;4.664;2022-11-15T03:34:07;36.00;;;22.73;;
39208;SDS011;24929;51.982;4.664;2022-11-15T03:36:39;31.38;;;22.15;;
39208;SDS011;24929;51.982;4.664;2022-11-15T03:39:05;34.05;;;22.25;;
39208;SDS011;24929;51.982;4.664;2022-11-15T03:47:17;30.85;;;20.73;;
39208;SDS011;24929;51.982;4.664;2022-11-15T03:49:50;31.13;;;20.50;;
39208;SDS011;24929;51.982;4.664;2022-11-15T03:52:18;31.42;;;19.48;;
39208;SDS011;24929;51.982;4.664;2022-11-15T03:54:55;25.33;;;18.98;;
39208;SDS011;24929;51.982;4.664;2022-11-15T03:57:21;27.80;;;19.00;;
39208;SDS011;24929;51.982;4.664;2022-11-15T03:59:47;23.73;;;17.50;;
39208;SDS011;24929;51.982;4.664;2022-11-15T04:02:12;28.23;;;17.98;;
39208;SDS011;24929;51.982;4.664;2022-11-15T04:04:38;26.13;;;17.63;;
39208;SDS011;24929;51.982;4.664;2022-11-15T04:07:03;25.92;;;18.25;;
39208;SDS011;24929;51.982;4.664;2022-11-15T04:09:29;26.90;;;19.55;;
39208;SDS011;24929;51.982;4.664;2022-11-15T04:11:54;22.27;;;15.75;;
39208;SDS011;24929;51.982;4.664;2022-11-15T04:14:20;26.55;;;17.13;;
39208;SDS011;24929;51.982;4.664;2022-11-15T04:16:45;23.90;;;15.90;;
39208;SDS011;24929;51.982;4.664;2022-11-15T04:19:10;23.25;;;16.95;;
39208;SDS011;24929;51.982;4.664;2022-11-15T04:21:54;22.75;;;16.38;;
39208;SDS011;24929;51.982;4.664;2022-11-15T04:24:38;24.02;;;16.92;;
39208;SDS011;24929;51.982;4.664;2022-11-15T04:27:03;20.42;;;16.63;;
39208;SDS011;24929;51.982;4.664;2022-11-15T04:29:29;22.35;;;16.85;;
39208;SDS011;24929;51.982;4.664;2022-11-15T04:32:01;19.63;;;14.82;;
39208;SDS011;24929;51.982;4.664;2022-11-15T04:34:29;19.77;;;16.13;;
39208;SDS011;24929;51.982;4.664;2022-11-15T04:36:55;21.25;;;14.63;;
39208;SDS011;24929;51.982;4.664;2022-11-15T04:39:42;21.15;;;16.60;;
39208;SDS011;24929;51.982;4.664;2022-11-15T04:42:08;19.83;;;14.88;;
39208;SDS011;24929;51.982;4.664;2022-11-15T04:44:34;22.42;;;15.20;;
39208;SDS011;24929;51.982;4.664;2022-11-15T04:47:00;21.88;;;14.63;;
39208;SDS011;24929;51.982;4.664;2022-11-15T04:49:26;18.98;;;13.50;;
39208;SDS011;24929;51.982;4.664;2022-11-15T04:51:51;23.35;;;15.73;;
39208;SDS011;24929;51.982;4.664;2022-11-15T04:54:16;18.42;;;14.98;;
39208;SDS011;24929;51.982;4.664;2022-11-15T04:56:42;21.23;;;14.75;;
39208;SDS011;24929;51.982;4.664;2022-11-15T04:59:07;18.02;;;13.45;;
39208;SDS011;24929;51.982;4.664;2022-11-15T05:01:33;19.95;;;13.25;;
39208;SDS011;24929;51.982;4.664;2022-11-15T05:03:58;27.52;;;14.20;;
39208;SDS011;24929;51.982;4.664;2022-11-15T05:06:42;22.23;;;13.98;;
39208;SDS011;24929;51.982;4.664;2022-11-15T05:09:07;20.10;;;14.05;;
39208;SDS011;24929;51.982;4.664;2022-11-15T05:11:33;15.90;;;12.82;;
39208;SDS011;24929;51.982;4.664;2022-11-15T05:13:58;17.02;;;13.43;;
39208;SDS011;24929;51.982;4.664;2022-11-15T05:16:23;21.45;;;13.40;;
39208;SDS011;24929;51.982;4.664;2022-11-15T05:18:53;18.15;;;12.88;;
39208;SDS011;24929;51.982;4.664;2022-11-15T05:21:19;18.90;;;13.65;;
39208;SDS011;24929;51.982;4.664;2022-11-15T05:23:45;20.45;;;13.63;;
39208;SDS011;24929;51.982;4.664;2022-11-15T05:26:11;15.18;;;11.63;;
39208;SDS011;24929;51.982;4.664;2022-11-15T05:28:39;15.23;;;11.98;;
39208;SDS011;24929;51.982;4.664;2022-11-15T05:31:08;16.90;;;11.32;;
39208;SDS011;24929;51.982;4.664;2022-11-15T05:33:36;11.90;;;10.15;;
39208;SDS011;24929;51.982;4.664;2022-11-15T05:36:07;13.48;;;11.18;;
39208;SDS011;24929;51.982;4.664;2022-11-15T05:38:38;15.88;;;10.60;;
39208;SDS011;24929;51.982;4.664;2022-11-15T05:41:04;10.98;;;9.18;;
39208;SDS011;24929;51.982;4.664;2022-11-15T05:43:30;15.00;;;10.02;;
39208;SDS011;24929;51.982;4.664;2022-11-15T05:45:58;14.52;;;10.13;;
39208;SDS011;24929;51.982;4.664;2022-11-15T05:48:25;14.18;;;10.52;;
39208;SDS011;24929;51.982;4.664;2022-11-15T05:50:50;12.75;;;8.85;;
39208;SDS011;24929;51.982;4.664;2022-11-15T05:53:17;13.30;;;10.55;;
39208;SDS011;24929;51.982;4.664;2022-11-15T05:55:46;15.45;;;9.00;;
39208;SDS011;24929;51.982;4.664;2022-11-15T05:58:12;15.27;;;10.18;;
39208;SDS011;24929;51.982;4.664;2022-11-15T06:00:37;10.23;;;8.05;;
39208;SDS011;24929;51.982;4.664;2022-11-15T06:03:02;13.75;;;9.65;;
39208;SDS011;24929;51.982;4.664;2022-11-15T06:05:28;13.65;;;8.25;;
39208;SDS011;24929;51.982;4.664;2022-11-15T06:07:56;10.80;;;8.27;;
39208;SDS011;24929;51.982;4.664;2022-11-15T06:10:23;11.93;;;8.93;;
39208;SDS011;24929;51.982;4.664;2022-11-15T06:12:59;20.10;;;8.85;;
39208;SDS011;24929;51.982;4.664;2022-11-15T06:15:25;13.40;;;7.55;;
39208;SDS011;24929;51.982;4.664;2022-11-15T06:17:50;11.55;;;8.55;;
39208;SDS011;24929;51.982;4.664;2022-11-15T06:20:16;10.38;;;7.35;;
39208;SDS011;24929;51.982;4.664;2022-11-15T06:22:42;14.10;;;7.93;;
39208;SDS011;24929;51.982;4.664;2022-11-15T06:25:07;10.93;;;7.22;;
39208;SDS011;24929;51.982;4.664;2022-11-15T06:27:33;11.80;;;8.18;;
39208;SDS011;24929;51.982;4.664;2022-11-15T06:29:58;9.02;;;7.45;;
39208;SDS011;24929;51.982;4.664;2022-11-15T06:32:23;12.90;;;7.07;;
39208;SDS011;24929;51.982;4.664;2022-11-15T06:34:48;12.23;;;6.70;;
39208;SDS011;24929;51.982;4.664;2022-11-15T06:37:14;8.98;;;6.72;;
39208;SDS011;24929;51.982;4.664;2022-11-15T06:39:40;8.43;;;6.10;;
39208;SDS011;24929;51.982;4.664;2022-11-15T06:42:05;16.13;;;7.03;;
39208;SDS011;24929;51.982;4.664;2022-11-15T06:44:30;17.38;;;7.40;;
39208;SDS011;24929;51.982;4.664;2022-11-15T06:46:56;12.77;;;7.07;;
39208;SDS011;24929;51.982;4.664;2022-11-15T06:49:21;13.80;;;7.75;;
39208;SDS011;24929;51.982;4.664;2022-11-15T06:51:46;10.80;;;6.85;;
39208;SDS011;24929;51.982;4.664;2022-11-15T06:54:12;8.73;;;6.75;;
39208;SDS011;24929;51.982;4.664;2022-11-15T06:56:37;13.52;;;7.72;;
39208;SDS011;24929;51.982;4.664;2022-11-15T06:59:02;10.50;;;6.97;;
39208;SDS011;24929;51.982;4.664;2022-11-15T07:01:28;11.85;;;7.15;;
39208;SDS011;24929;51.982;4.664;2022-11-15T07:03:53;12.10;;;6.80;;
39208;SDS011;24929;51.982;4.664;2022-11-15T07:06:18;10.88;;;7.28;;
39208;SDS011;24929;51.982;4.664;2022-11-15T07:08:44;9.93;;;6.05;;
39208;SDS011;24929;51.982;4.664;2022-11-15T07:11:10;14.25;;;7.15;;
39208;SDS011;24929;51.982;4.664;2022-11-15T07:13:36;8.48;;;5.60;;
39208;SDS011;24929;51.982;4.664;2022-11-15T07:28:15;11.00;;;5.53;;
39208;SDS011;24929;51.982;4.664;2022-11-15T07:30:41;4.55;;;4.15;;
39208;SDS011;24929;51.982;4.664;2022-11-15T07:33:06;10.18;;;5.15;;
39208;SDS011;24929;51.982;4.664;2022-11-15T07:35:31;7.07;;;5.15;;
39208;SDS011;24929;51.982;4.664;2022-11-15T07:37:57;7.85;;;4.40;;
39208;SDS011;24929;51.982;4.664;2022-11-15T07:40:25;12.40;;;4.95;;
39208;SDS011;24929;51.982;4.664;2022-11-15T07:42:51;8.95;;;4.50;;
39208;SDS011;24929;51.982;4.664;2022-11-15T07:45:22;10.70;;;4.85;;
39208;SDS011;24929;51.982;4.664;2022-11-15T07:47:49;7.75;;;5.55;;
39208;SDS011;24929;51.982;4.664;2022-11-15T07:50:15;7.03;;;5.80;;
39208;SDS011;24929;51.982;4.664;2022-11-15T07:52:41;10.40;;;7.63;;
39208;SDS011;24929;51.982;4.664;2022-11-15T07:55:06;12.93;;;7.70;;
39208;SDS011;24929;51.982;4.664;2022-11-15T07:57:32;10.88;;;7.63;;
39208;SDS011;24929;51.982;4.664;2022-11-15T07:59:57;11.52;;;7.47;;
39208;SDS011;24929;51.982;4.664;2022-11-15T08:02:23;15.57;;;9.25;;
39208;SDS011;24929;51.982;4.664;2022-11-15T08:04:48;11.90;;;8.40;;
39208;SDS011;24929;51.982;4.664;2022-11-15T08:07:13;11.93;;;7.57;;
39208;SDS011;24929;51.982;4.664;2022-11-15T08:09:39;10.85;;;8.02;;
39208;SDS011;24929;51.982;4.664;2022-11-15T08:12:04;14.02;;;9.93;;
39208;SDS011;24929;51.982;4.664;2022-11-15T08:14:30;14.50;;;9.57;;
39208;SDS011;24929;51.982;4.664;2022-11-15T08:16:55;12.18;;;10.00;;
39208;SDS011;24929;51.982;4.664;2022-11-15T08:19:21;10.75;;;8.38;;
39208;SDS011;24929;51.982;4.664;2022-11-15T08:21:46;14.60;;;10.20;;
39208;SDS011;24929;51.982;4.664;2022-11-15T08:24:12;12.07;;;8.77;;
39208;SDS011;24929;51.982;4.664;2022-11-15T08:26:37;12.55;;;8.60;;
39208;SDS011;24929;51.982;4.664;2022-11-15T08:29:03;16.50;;;8.88;;
39208;SDS011;24929;51.982;4.664;2022-11-15T08:31:28;14.73;;;9.18;;
39208;SDS011;24929;51.982;4.664;2022-11-15T08:33:54;14.65;;;8.68;;
39208;SDS011;24929;51.982;4.664;2022-11-15T08:36:19;8.98;;;7.28;;
39208;SDS011;24929;51.982;4.664;2022-11-15T08:38:45;9.05;;;7.30;;
39208;SDS011;24929;51.982;4.664;2022-11-15T08:41:16;11.13;;;7.93;;
39208;SDS011;24929;51.982;4.664;2022-11-15T08:43:54;10.02;;;7.95;;
39208;SDS011;24929;51.982;4.664;2022-11-15T08:46:20;9.73;;;6.70;;
39208;SDS011;24929;51.982;4.664;2022-11-15T08:48:45;21.05;;;8.10;;
39208;SDS011;24929;51.982;4.664;2022-11-15T08:51:11;13.07;;;7.47;;
39208;SDS011;24929;51.982;4.664;2022-11-15T08:53:36;11.77;;;7.28;;
39208;SDS011;24929;51.982;4.664;2022-11-15T08:56:01;7.25;;;6.47;;
39208;SDS011;24929;51.982;4.664;2022-11-15T08:58:27;8.82;;;6.43;;
39208;SDS011;24929;51.982;4.664;2022-11-15T09:00:53;7.45;;;6.22;;
39208;SDS011;24929;51.982;4.664;2022-11-15T09:03:19;8.57;;;6.35;;
39208;SDS011;24929;51.982;4.664;2022-11-15T09:05:44;10.60;;;6.78;;
39208;SDS011;24929;51.982;4.664;2022-11-15T09:08:09;10.10;;;6.07;;
39208;SDS011;24929;51.982;4.664;2022-11-15T09:10:36;16.13;;;7.00;;
39208;SDS011;24929;51.982;4.664;2022-11-15T09:13:01;16.77;;;6.25;;
39208;SDS011;24929;51.982;4.664;2022-11-15T09:15:27;10.90;;;6.53;;
39208;SDS011;24929;51.982;4.664;2022-11-15T09:17:52;9.70;;;6.55;;
39208;SDS011;24929;51.982;4.664;2022-11-15T09:20:17;12.77;;;6.38;;
39208;SDS011;24929;51.982;4.664;2022-11-15T09:22:43;10.65;;;7.03;;
39208;SDS011;24929;51.982;4.664;2022-11-15T09:25:08;7.40;;;6.53;;
39208;SDS011;24929;51.982;4.664;2022-11-15T09:27:34;6.53;;;5.68;;
39208;SDS011;24929;51.982;4.664;2022-11-15T09:29:59;12.95;;;4.60;;
39208;SDS011;24929;51.982;4.664;2022-11-15T09:32:28;7.82;;;5.72;;
39208;SDS011;24929;51.982;4.664;2022-11-15T09:34:53;5.57;;;5.07;;
39208;SDS011;24929;51.982;4.664;2022-11-15T09:37:19;11.10;;;6.07;;
39208;SDS011;24929;51.982;4.664;2022-11-15T09:39:44;9.25;;;5.85;;
39208;SDS011;24929;51.982;4.664;2022-11-15T09:42:34;6.78;;;5.03;;
39208;SDS011;24929;51.982;4.664;2022-11-15T09:50:49;8.35;;;4.20;;
39208;SDS011;24929;51.982;4.664;2022-11-15T09:53:24;6.63;;;4.15;;
39208;SDS011;24929;51.982;4.664;2022-11-15T09:56:05;7.05;;;4.20;;
39208;SDS011;24929;51.982;4.664;2022-11-15T09:58:49;6.80;;;3.80;;
39208;SDS011;24929;51.982;4.664;2022-11-15T10:01:29;8.52;;;4.10;;
39208;SDS011;24929;51.982;4.664;2022-11-15T10:04:09;4.45;;;3.33;;
39208;SDS011;24929;51.982;4.664;2022-11-15T10:06:35;5.30;;;3.38;;
39208;SDS011;24929;51.982;4.664;2022-11-15T10:09:10;5.03;;;3.58;;
39208;SDS011;24929;51.982;4.664;2022-11-15T10:11:37;3.95;;;2.88;;
39208;SDS011;24929;51.982;4.664;2022-11-15T10:14:10;8.35;;;3.38;;
39208;SDS011;24929;51.982;4.664;2022-11-15T10:19:26;7.63;;;3.30;;
39208;SDS011;24929;51.982;4.664;2022-11-15T10:24:46;7.07;;;3.53;;
39208;SDS011;24929;51.982;4.664;2022-11-15T10:27:16;3.88;;;3.10;;
39208;SDS011;24929;51.982;4.664;2022-11-15T10:29:47;3.75;;;3.10;;
39208;SDS011;24929;51.982;4.664;2022-11-15T10:32:14;5.15;;;2.80;;
39208;SDS011;24929;51.982;4.664;2022-11-15T10:34:41;3.22;;;2.75;;
39208;SDS011;24929;51.982;4.664;2022-11-15T10:37:08;13.65;;;2.88;;
39208;SDS011;24929;51.982;4.664;2022-11-15T10:39:34;5.43;;;2.55;;
39208;SDS011;24929;51.982;4.664;2022-11-15T10:42:22;2.28;;;2.00;;
39208;SDS011;24929;51.982;4.664;2022-11-15T10:44:52;4.67;;;3.00;;
39208;SDS011;24929;51.982;4.664;2022-11-15T10:47:24;5.43;;;2.58;;
39208;SDS011;24929;51.982;4.664;2022-11-15T10:52:23;6.70;;;1.90;;
39208;SDS011;24929;51.982;4.664;2022-11-15T10:57:49;1.92;;;1.67;;
39208;SDS011;24929;51.982;4.664;2022-11-15T11:05:38;4.78;;;2.00;;
39208;SDS011;24929;51.982;4.664;2022-11-15T11:10:54;2.33;;;1.88;;
39208;SDS011;24929;51.982;4.664;2022-11-15T11:13:28;2.95;;;2.53;;
39208;SDS011;24929;51.982;4.664;2022-11-15T11:43:12;2.70;;;0.93;;
39208;SDS011;24929;51.982;4.664;2022-11-15T11:51:19;2.22;;;1.23;;
39208;SDS011;24929;51.982;4.664;2022-11-15T11:54:05;1.58;;;0.73;;
39208;SDS011;24929;51.982;4.664;2022-11-15T11:56:39;5.63;;;1.08;;
39208;SDS011;24929;51.982;4.664;2022-11-15T12:02:09;5.53;;;1.35;;
39208;SDS011;24929;51.982;4.664;2022-11-15T12:04:40;4.25;;;1.10;;
39208;SDS011;24929;51.982;4.664;2022-11-15T12:07:27;3.70;;;1.10;;
39208;SDS011;24929;51.982;4.664;2022-11-15T12:12:30;2.28;;;1.15;;
39208;SDS011;24929;51.982;4.664;2022-11-15T12:17:35;6.75;;;1.38;;
39208;SDS011;24929;51.982;4.664;2022-11-15T12:20:06;1.52;;;1.23;;
39208;SDS011;24929;51.982;4.664;2022-11-15T12:22:46;2.40;;;0.93;;
39208;SDS011;24929;51.982;4.664;2022-11-15T12:28:31;7.43;;;1.83;;
39208;SDS011;24929;51.982;4.664;2022-11-15T12:31:13;3.63;;;1.17;;
39208;SDS011;24929;51.982;4.664;2022-11-15T12:33:46;1.92;;;0.82;;
39208;SDS011;24929;51.982;4.664;2022-11-15T12:43:40;2.55;;;0.88;;
39208;SDS011;24929;51.982;4.664;2022-11-15T12:46:11;1.98;;;0.65;;
39208;SDS011;24929;51.982;4.664;2022-11-15T12:49:01;1.95;;;0.90;;
39208;SDS011;24929;51.982;4.664;2022-11-15T13:02:20;1.60;;;0.95;;
39208;SDS011;24929;51.982;4.664;2022-11-15T13:17:38;1.55;;;0.70;;
39208;SDS011;24929;51.982;4.664;2022-11-15T13:22:39;2.05;;;0.85;;
39208;SDS011;24929;51.982;4.664;2022-11-15T13:30:39;2.08;;;0.98;;
39208;SDS011;24929;51.982;4.664;2022-11-15T13:33:35;4.57;;;0.82;;
39208;SDS011;24929;51.982;4.664;2022-11-15T13:36:12;2.88;;;1.40;;
39208;SDS011;24929;51.982;4.664;2022-11-15T13:38:44;1.25;;;0.77;;
39208;SDS011;24929;51.982;4.664;2022-11-15T13:41:21;1.25;;;0.82;;
39208;SDS011;24929;51.982;4.664;2022-11-15T13:43:49;0.98;;;0.68;;
39208;SDS011;24929;51.982;4.664;2022-11-15T13:46:28;3.15;;;0.85;;
39208;SDS011;24929;51.982;4.664;2022-11-15T13:48:56;3.83;;;1.00;;
39208;SDS011;24929;51.982;4.664;2022-11-15T13:51:24;0.50;;;0.35;;
39208;SDS011;24929;51.982;4.664;2022-11-15T13:53:57;4.22;;;0.50;;
39208;SDS011;24929;51.982;4.664;2022-11-15T13:56:28;6.32;;;1.00;;
39208;SDS011;24929;51.982;4.664;2022-11-15T13:58:56;1.15;;;0.82;;
39208;SDS011;24929;51.982;4.664;2022-11-15T14:01:21;4.57;;;1.20;;
39208;SDS011;24929;51.982;4.664;2022-11-15T14:03:49;2.72;;;1.00;;
39208;SDS011;24929;51.982;4.664;2022-11-15T14:06:18;3.95;;;0.50;;
39208;SDS011;24929;51.982;4.664;2022-11-15T14:09:00;1.75;;;0.80;;
39208;SDS011;24929;51.982;4.664;2022-11-15T14:14:47;3.08;;;0.70;;
39208;SDS011;24929;51.982;4.664;2022-11-15T14:17:19;7.25;;;0.95;;
39208;SDS011;24929;51.982;4.664;2022-11-15T14:20:38;7.53;;;1.10;;
39208;SDS011;24929;51.982;4.664;2022-11-15T14:23:18;3.30;;;1.27;;
39208;SDS011;24929;51.982;4.664;2022-11-15T14:25:55;2.38;;;0.75;;
39208;SDS011;24929;51.982;4.664;2022-11-15T14:30:47;0.80;;;0.50;;
39208;SDS011;24929;51.982;4.664;2022-11-15T14:33:22;2.45;;;0.82;;
39208;SDS011;24929;51.982;4.664;2022-11-15T14:35:48;0.73;;;0.50;;
39208;SDS011;24929;51.982;4.664;2022-11-15T14:38:14;0.70;;;0.60;;
39208;SDS011;24929;51.982;4.664;2022-11-15T14:40:40;2.78;;;0.82;;
39208;SDS011;24929;51.982;4.664;2022-11-15T14:43:08;2.00;;;0.77;;
39208;SDS011;24929;51.982;4.664;2022-11-15T14:45:35;2.08;;;0.82;;
39208;SDS011;24929;51.982;4.664;2022-11-15T14:48:00;2.35;;;0.98;;
39208;SDS011;24929;51.982;4.664;2022-11-15T14:50:26;0.65;;;0.52;;
39208;SDS011;24929;51.982;4.664;2022-11-15T14:52:52;3.92;;;0.95;;
39208;SDS011;24929;51.982;4.664;2022-11-15T14:55:22;3.22;;;1.00;;
39208;SDS011;24929;51.982;4.664;2022-11-15T14:57:49;0.55;;;0.43;;
39208;SDS011;24929;51.982;4.664;2022-11-15T15:00:15;1.77;;;0.98;;
39208;SDS011;24929;51.982;4.664;2022-11-15T15:02:41;5.05;;;0.88;;
39208;SDS011;24929;51.982;4.664;2022-11-15T15:10:06;1.23;;;0.60;;
39208;SDS011;24929;51.982;4.664;2022-11-15T15:12:32;1.08;;;0.77;;
39208;SDS011;24929;51.982;4.664;2022-11-15T15:14:58;3.55;;;0.68;;
39208;SDS011;24929;51.982;4.664;2022-11-15T15:17:23;4.78;;;0.75;;
39208;SDS011;24929;51.982;4.664;2022-11-15T15:19:50;1.02;;;0.90;;
39208;SDS011;24929;51.982;4.664;2022-11-15T15:22:16;2.17;;;1.33;;
39208;SDS011;24929;51.982;4.664;2022-11-15T15:24:43;0.70;;;0.60;;
39208;SDS011;24929;51.982;4.664;2022-11-15T15:27:09;1.52;;;0.80;;
39208;SDS011;24929;51.982;4.664;2022-11-15T15:29:35;1.00;;;0.65;;
39208;SDS011;24929;51.982;4.664;2022-11-15T15:32:01;4.25;;;0.77;;
39208;SDS011;24929;51.982;4.664;2022-11-15T15:34:26;1.48;;;0.70;;
39208;SDS011;24929;51.982;4.664;2022-11-15T15:39:51;2.70;;;0.70;;
39208;SDS011;24929;51.982;4.664;2022-11-15T15:42:18;1.85;;;0.80;;
39208;SDS011;24929;51.982;4.664;2022-11-15T15:44:44;2.67;;;1.45;;
39208;SDS011;24929;51.982;4.664;2022-11-15T15:47:13;1.02;;;0.90;;
39208;SDS011;24929;51.982;4.664;2022-11-15T15:49:41;1.30;;;0.90;;
39208;SDS011;24929;51.982;4.664;2022-11-15T15:52:07;3.15;;;0.95;;
39208;SDS011;24929;51.982;4.664;2022-11-15T15:54:32;1.85;;;0.82;;
39208;SDS011;24929;51.982;4.664;2022-11-15T15:56:58;2.50;;;1.10;;
39208;SDS011;24929;51.982;4.664;2022-11-15T15:59:23;2.92;;;1.23;;
39208;SDS011;24929;51.982;4.664;2022-11-15T16:01:48;1.08;;;0.88;;
39208;SDS011;24929;51.982;4.664;2022-11-15T16:04:14;4.00;;;1.30;;
39208;SDS011;24929;51.982;4.664;2022-11-15T16:06:39;1.67;;;1.13;;
39208;SDS011;24929;51.982;4.664;2022-11-15T16:09:10;2.72;;;1.20;;
39208;SDS011;24929;51.982;4.664;2022-11-15T16:11:44;1.90;;;1.02;;
39208;SDS011;24929;51.982;4.664;2022-11-15T16:14:10;3.55;;;1.10;;
39208;SDS011;24929;51.982;4.664;2022-11-15T16:16:36;3.60;;;1.00;;
39208;SDS011;24929;51.982;4.664;2022-11-15T16:19:02;1.88;;;1.05;;
39208;SDS011;24929;51.982;4.664;2022-11-15T16:21:29;4.80;;;1.95;;
39208;SDS011;24929;51.982;4.664;2022-11-15T16:23:54;2.55;;;1.80;;
39208;SDS011;24929;51.982;4.664;2022-11-15T16:26:27;2.85;;;1.15;;
39208;SDS011;24929;51.982;4.664;2022-11-15T16:35:22;3.03;;;1.90;;
39208;SDS011;24929;51.982;4.664;2022-11-15T16:37:48;4.65;;;2.03;;
39208;SDS011;24929;51.982;4.664;2022-11-15T16:40:25;2.53;;;1.00;;
39208;SDS011;24929;51.982;4.664;2022-11-15T16:42:58;5.82;;;1.33;;
39208;SDS011;24929;51.982;4.664;2022-11-15T16:45:26;1.20;;;1.10;;
39208;SDS011;24929;51.982;4.664;2022-11-15T16:47:53;2.17;;;1.15;;
39208;SDS011;24929;51.982;4.664;2022-11-15T16:50:23;1.48;;;1.17;;
39208;SDS011;24929;51.982;4.664;2022-11-15T16:52:51;2.38;;;1.70;;
39208;SDS011;24929;51.982;4.664;2022-11-15T16:55:19;2.28;;;2.03;;
39208;SDS011;24929;51.982;4.664;2022-11-15T16:57:45;4.22;;;1.65;;
39208;SDS011;24929;51.982;4.664;2022-11-15T17:00:11;3.95;;;1.70;;
39208;SDS011;24929;51.982;4.664;2022-11-15T17:02:40;1.80;;;1.20;;
39208;SDS011;24929;51.982;4.664;2022-11-15T17:05:07;3.78;;;1.42;;
39208;SDS011;24929;51.982;4.664;2022-11-15T17:07:32;2.95;;;1.42;;
39208;SDS011;24929;51.982;4.664;2022-11-15T17:09:58;8.55;;;2.30;;
39208;SDS011;24929;51.982;4.664;2022-11-15T17:12:23;1.27;;;1.20;;
39208;SDS011;24929;51.982;4.664;2022-11-15T17:14:48;3.58;;;1.73;;
39208;SDS011;24929;51.982;4.664;2022-11-15T17:17:13;1.80;;;1.42;;
39208;SDS011;24929;51.982;4.664;2022-11-15T17:19:39;1.13;;;1.00;;
39208;SDS011;24929;51.982;4.664;2022-11-15T17:22:04;2.35;;;1.90;;
39208;SDS011;24929;51.982;4.664;2022-11-15T17:24:29;2.72;;;1.52;;
39208;SDS011;24929;51.982;4.664;2022-11-15T17:26:55;7.88;;;2.05;;
39208;SDS011;24929;51.982;4.664;2022-11-15T17:29:20;2.40;;;1.70;;
39208;SDS011;24929;51.982;4.664;2022-11-15T17:31:45;1.92;;;1.67;;